Notice: A non well formed numeric value encountered in /services16/webpages/util/w/t/wt8r5xhl.myutilitysite.com/weatherstationew0157.net/public/weather28/wsFunctions.php on line 312

Warning: A non-numeric value encountered in /services16/webpages/util/w/t/wt8r5xhl.myutilitysite.com/weatherstationew0157.net/public/weather28/wsFunctions.php on line 312

Warning: A non-numeric value encountered in /services16/webpages/util/w/t/wt8r5xhl.myutilitysite.com/weatherstationew0157.net/public/weather28/wsFunctions.php on line 312

Warning: A non-numeric value encountered in /services16/webpages/util/w/t/wt8r5xhl.myutilitysite.com/weatherstationew0157.net/public/weather28/scriptsWL/tagsWL.php on line 167

Warning: A non-numeric value encountered in /services16/webpages/util/w/t/wt8r5xhl.myutilitysite.com/weatherstationew0157.net/public/weather28/scriptsWL/tagsWL.php on line 168

Notice: Undefined index: moonrise in /services16/webpages/util/w/t/wt8r5xhl.myutilitysite.com/weatherstationew0157.net/public/weather28/inc/astronomy.php on line 427

Notice: Undefined index: moonset in /services16/webpages/util/w/t/wt8r5xhl.myutilitysite.com/weatherstationew0157.net/public/weather28/inc/astronomy.php on line 428
Announcements


NOTE: If anyone would like their zip code added to the Forecasts page please use the contact page and send me your town and zip code.
NOTE: You can customize the way the weather site looks, and select your favorite weather forecast by clicking the "Customize" button on the menu. And then "Save Your Changes"

Nearby METAR Reports

   
KMMU - Bloomingdale, New Jersey 07403
Updated: Jan 22 2021 3:35 am
Clear  
Clear  
   Wind: SW 3.5 mph
Wind: SW 3.5 mph
Temperature: 30.2°F
Wind Chill: 26.6°F
Dew Point: 23°F
Humidity: 75%
Barometer: 29.62 inHg
Clouds: Clear
Visibility: 10 mi
Cloud details: Clear m
KMMU 220835Z AUTO 22003KT 10SM CLR M01/M05 A2962 RMK AO2
KTEB - Clifton, New Jersey 07014
Updated: Jan 22 2021 3:51 am
Few Clouds  
Few Clouds  
   Wind: SW 8.1 mph
Wind: SW 8.1 mph
Temperature: 35.6°F
Wind Chill: 28.4°F
Dew Point: 24.8°F
Humidity: 65%
Barometer: 29.61 inHg
Clouds: Few Clouds
Visibility: 10 mi
Cloud details: Few Clouds 3048 m
KTEB 220851Z 23007KT 10SM FEW100 02/M04 A2961 RMK AO2 SLP026 T00171044 51006
KFWN - Hamburg, New Jersey 07419
Updated: Jan 22 2021 2:53 am
Overcast  
Overcast  
   Wind: Calm
Wind: Calm
Temperature: 26.6°F
Dew Point: 21.2°F
Humidity: 80%
Barometer: 29.59 inHg
Clouds: Overcast
Visibility: 9 mi
Cloud details: Overcast 2896 m
KFWN 220753Z AUTO 00000KT 9SM OVC095 M03/M06 A2959 RMK AO2 SLP022 T10331061
KFWN - Highland Lakes, New Jersey 07422
Updated: Jan 22 2021 2:53 am
Overcast  
Overcast  
   Wind: Calm
Wind: Calm
Temperature: 26.6°F
Dew Point: 21.2°F
Humidity: 80%
Barometer: 29.59 inHg
Clouds: Overcast
Visibility: 9 mi
Cloud details: Overcast 2896 m
KFWN 220753Z AUTO 00000KT 9SM OVC095 M03/M06 A2959 RMK AO2 SLP022 T10331061
KMMU - Hopatcong,New Jersey 07849
Updated: Jan 22 2021 3:35 am
Clear  
Clear  
   Wind: SW 3.5 mph
Wind: SW 3.5 mph
Temperature: 30.2°F
Wind Chill: 26.6°F
Dew Point: 23°F
Humidity: 75%
Barometer: 29.62 inHg
Clouds: Clear
Visibility: 10 mi
Cloud details: Clear m
KMMU 220835Z AUTO 22003KT 10SM CLR M01/M05 A2962 RMK AO2
KFWN - Jefferson, New Jersey 07438
Updated: Jan 22 2021 2:53 am
Overcast  
Overcast  
   Wind: Calm
Wind: Calm
Temperature: 26.6°F
Dew Point: 21.2°F
Humidity: 80%
Barometer: 29.59 inHg
Clouds: Overcast
Visibility: 9 mi
Cloud details: Overcast 2896 m
KFWN 220753Z AUTO 00000KT 9SM OVC095 M03/M06 A2959 RMK AO2 SLP022 T10331061
KLDJ - Keansburg, New Jersey 07734
Updated: Jan 22 2021 3:35 am
Clear  
Clear  
   Wind: West 5.8 mph
Wind: West 5.8 mph
Temperature: 35.6°F
Wind Chill: 30.2°F
Dew Point: 24.8°F
Humidity: 65%
Barometer: 29.63 inHg
Clouds: Clear
Visibility: 10 mi
Cloud details: Clear m
KLDJ 220835Z AUTO 26005KT 10SM CLR 02/M04 A2963 RMK AO2 T00211045
KMJX - Lavallette, New Jersey 08735
Updated: Jan 22 2021 2:56 am
Clear  
Clear  
   Wind: WSW 10.4 mph
Wind: WSW 10.4 mph
Temperature: 35.6°F
Wind Chill: 28.4°F
Dew Point: 24.8°F
Humidity: 65%
Barometer: 29.66 inHg
Clouds: Clear
Visibility: 10 mi
Cloud details: Clear m
KMJX 220756Z AUTO 25009KT 10SM CLR 02/M04 A2966 RMK AO2 SLP049 T00221044 FZRANO
KTEB - Little Ferry, New Jersey 07643
Updated: Jan 22 2021 3:51 am
Few Clouds  
Few Clouds  
   Wind: SW 8.1 mph
Wind: SW 8.1 mph
Temperature: 35.6°F
Wind Chill: 28.4°F
Dew Point: 24.8°F
Humidity: 65%
Barometer: 29.61 inHg
Clouds: Few Clouds
Visibility: 10 mi
Cloud details: Few Clouds 3048 m
KTEB 220851Z 23007KT 10SM FEW100 02/M04 A2961 RMK AO2 SLP026 T00171044 51006
KTEB - Spring Valley, NY 10977
Updated: Jan 22 2021 3:51 am
Few Clouds  
Few Clouds  
   Wind: SW 8.1 mph
Wind: SW 8.1 mph
Temperature: 35.6°F
Wind Chill: 28.4°F
Dew Point: 24.8°F
Humidity: 65%
Barometer: 29.61 inHg
Clouds: Few Clouds
Visibility: 10 mi
Cloud details: Few Clouds 3048 m
KTEB 220851Z 23007KT 10SM FEW100 02/M04 A2961 RMK AO2 SLP026 T00171044 51006
KEWR - Newark, New Jersey 07104
Updated: Jan 22 2021 3:51 am
Partly Cloudy  
Partly Cloudy  
   Wind: WSW 9.2 mph
Wind: WSW 9.2 mph
Temperature: 35.6°F
Wind Chill: 28.4°F
Dew Point: 24.8°F
Humidity: 65%
Barometer: 29.63 inHg
Clouds: Partly Cloudy
Visibility: 10 mi
Cloud details: Partly Cloudy 2438 m
KEWR 220851Z 25008KT 10SM SCT080 02/M04 A2963 RMK AO2 SLP032 T00171044 53006 $
KMMU - Newfoundland, New Jersey 07435
Updated: Jan 22 2021 3:35 am
Clear  
Clear  
   Wind: SW 3.5 mph
Wind: SW 3.5 mph
Temperature: 30.2°F
Wind Chill: 26.6°F
Dew Point: 23°F
Humidity: 75%
Barometer: 29.62 inHg
Clouds: Clear
Visibility: 10 mi
Cloud details: Clear m
KMMU 220835Z AUTO 22003KT 10SM CLR M01/M05 A2962 RMK AO2
KLGA - Yonkers, New York 10710
Updated: Jan 22 2021 3:51 am
Clear  
Clear  
   Wind: WSW 11.5 mph<br />Gust to 11.5 mph
Wind: WSW 11.5 mph
Gust to 11.5 mph
Temperature: 44.6°F
Wind Chill: 39.2°F
Dew Point: 21.2°F
Humidity: 39%
Barometer: 29.61 inHg
Clouds: Clear
Visibility: 10 mi
Cloud details: Clear m
KLGA 220851Z 25010G19KT 10SM CLR 07/M06 A2961 RMK AO2 SLP026 T00671056 53006
  

Script developed by  Saratoga-weather.org Adapted for the template by  Weerstation Leuven

You find our weather info also at:

Weather Underground

Citizen Weather Observer Program (CWOP)

Equipment we use:

Weather-station
Davis Vantage Pro2

Weather-program
WeatherLink

Weather-server
DELL Optiplex 7020 Mini-Tower

Provider
Deluxe

Davis Vantage Pro2

WeatherLink

DELL Optiplex 7020 Mini-Tower

Deluxe

Weather Station EW0157 Visitors
Weather Station EW0157 Visitors